sensor_id;sensor_type;location;lat;lon;timestamp;P1;durP1;ratioP1;P2;durP2;ratioP2
23400;SDS011;11873;49.300;8.920;2023-02-22T00:02:36;7.00;;;5.60;;
23400;SDS011;11873;49.300;8.920;2023-02-22T00:07:36;7.17;;;6.10;;
23400;SDS011;11873;49.300;8.920;2023-02-22T00:12:39;6.10;;;5.50;;
23400;SDS011;11873;49.300;8.920;2023-02-22T00:17:39;6.20;;;5.43;;
23400;SDS011;11873;49.300;8.920;2023-02-22T00:22:41;7.90;;;6.10;;
23400;SDS011;11873;49.300;8.920;2023-02-22T00:27:42;6.27;;;5.63;;
23400;SDS011;11873;49.300;8.920;2023-02-22T00:32:42;6.30;;;5.10;;
23400;SDS011;11873;49.300;8.920;2023-02-22T00:37:45;6.67;;;6.03;;
23400;SDS011;11873;49.300;8.920;2023-02-22T00:42:46;6.73;;;6.10;;
23400;SDS011;11873;49.300;8.920;2023-02-22T00:47:46;7.30;;;5.93;;
23400;SDS011;11873;49.300;8.920;2023-02-22T00:52:46;6.30;;;5.27;;
23400;SDS011;11873;49.300;8.920;2023-02-22T00:57:47;8.17;;;6.10;;
23400;SDS011;11873;49.300;8.920;2023-02-22T01:02:47;8.38;;;5.90;;
23400;SDS011;11873;49.300;8.920;2023-02-22T01:07:48;8.63;;;5.33;;
23400;SDS011;11873;49.300;8.920;2023-02-22T01:12:48;7.17;;;4.80;;
23400;SDS011;11873;49.300;8.920;2023-02-22T01:17:50;7.83;;;5.60;;
23400;SDS011;11873;49.300;8.920;2023-02-22T01:22:51;7.67;;;5.27;;
23400;SDS011;11873;49.300;8.920;2023-02-22T01:27:52;6.83;;;5.73;;
23400;SDS011;11873;49.300;8.920;2023-02-22T01:32:53;6.97;;;5.30;;
23400;SDS011;11873;49.300;8.920;2023-02-22T01:37:53;6.07;;;5.47;;
23400;SDS011;11873;49.300;8.920;2023-02-22T01:42:54;5.50;;;5.00;;
23400;SDS011;11873;49.300;8.920;2023-02-22T01:48:05;7.93;;;6.33;;
23400;SDS011;11873;49.300;8.920;2023-02-22T01:53:07;6.87;;;5.97;;
23400;SDS011;11873;49.300;8.920;2023-02-22T01:58:08;7.10;;;6.33;;
23400;SDS011;11873;49.300;8.920;2023-02-22T02:03:42;8.37;;;6.10;;
23400;SDS011;11873;49.300;8.920;2023-02-22T02:08:44;9.33;;;6.37;;
23400;SDS011;11873;49.300;8.920;2023-02-22T02:13:48;6.63;;;5.53;;
23400;SDS011;11873;49.300;8.920;2023-02-22T02:18:48;6.30;;;5.47;;
23400;SDS011;11873;49.300;8.920;2023-02-22T02:29:00;7.57;;;6.23;;
23400;SDS011;11873;49.300;8.920;2023-02-22T02:39:08;6.87;;;5.73;;
23400;SDS011;11873;49.300;8.920;2023-02-22T02:49:10;7.47;;;5.80;;
23400;SDS011;11873;49.300;8.920;2023-02-22T02:54:11;6.90;;;5.23;;
23400;SDS011;11873;49.300;8.920;2023-02-22T03:09:35;7.43;;;5.93;;
23400;SDS011;11873;49.300;8.920;2023-02-22T03:19:50;7.17;;;4.97;;
23400;SDS011;11873;49.300;8.920;2023-02-22T03:30:26;8.10;;;5.63;;
23400;SDS011;11873;49.300;8.920;2023-02-22T03:35:30;6.77;;;5.33;;
23400;SDS011;11873;49.300;8.920;2023-02-22T03:40:35;6.07;;;5.37;;
23400;SDS011;11873;49.300;8.920;2023-02-22T03:45:36;6.77;;;5.20;;
23400;SDS011;11873;49.300;8.920;2023-02-22T03:50:39;6.57;;;5.37;;
23400;SDS011;11873;49.300;8.920;2023-02-22T03:55:39;8.70;;;5.30;;
23400;SDS011;11873;49.300;8.920;2023-02-22T04:00:39;5.47;;;4.90;;
23400;SDS011;11873;49.300;8.920;2023-02-22T04:05:40;5.43;;;4.80;;
23400;SDS011;11873;49.300;8.920;2023-02-22T04:10:40;7.60;;;5.30;;
23400;SDS011;11873;49.300;8.920;2023-02-22T04:15:40;6.03;;;4.70;;
23400;SDS011;11873;49.300;8.920;2023-02-22T04:20:40;5.73;;;5.13;;
23400;SDS011;11873;49.300;8.920;2023-02-22T04:25:40;8.53;;;5.43;;
23400;SDS011;11873;49.300;8.920;2023-02-22T04:30:41;6.13;;;4.97;;
23400;SDS011;11873;49.300;8.920;2023-02-22T04:35:41;5.17;;;4.33;;
23400;SDS011;11873;49.300;8.920;2023-02-22T04:40:41;6.67;;;5.00;;
23400;SDS011;11873;49.300;8.920;2023-02-22T04:45:41;5.83;;;5.13;;
23400;SDS011;11873;49.300;8.920;2023-02-22T04:50:41;8.43;;;5.27;;
23400;SDS011;11873;49.300;8.920;2023-02-22T04:55:41;7.10;;;5.20;;
23400;SDS011;11873;49.300;8.920;2023-02-22T05:00:42;5.23;;;4.77;;
23400;SDS011;11873;49.300;8.920;2023-02-22T05:05:42;8.27;;;5.10;;
23400;SDS011;11873;49.300;8.920;2023-02-22T05:10:42;5.53;;;4.87;;
23400;SDS011;11873;49.300;8.920;2023-02-22T05:15:42;7.37;;;4.30;;
23400;SDS011;11873;49.300;8.920;2023-02-22T05:20:42;5.40;;;4.50;;
23400;SDS011;11873;49.300;8.920;2023-02-22T05:25:44;6.30;;;5.10;;
23400;SDS011;11873;49.300;8.920;2023-02-22T05:30:45;6.20;;;4.67;;
23400;SDS011;11873;49.300;8.920;2023-02-22T05:35:45;5.07;;;4.47;;
23400;SDS011;11873;49.300;8.920;2023-02-22T05:40:45;6.57;;;5.23;;
23400;SDS011;11873;49.300;8.920;2023-02-22T05:45:45;12.20;;;10.33;;
23400;SDS011;11873;49.300;8.920;2023-02-22T05:50:45;10.40;;;9.30;;
23400;SDS011;11873;49.300;8.920;2023-02-22T05:55:45;6.20;;;5.60;;
23400;SDS011;11873;49.300;8.920;2023-02-22T06:00:46;7.00;;;5.50;;
23400;SDS011;11873;49.300;8.920;2023-02-22T06:05:46;5.77;;;5.23;;
23400;SDS011;11873;49.300;8.920;2023-02-22T06:10:46;8.23;;;5.40;;
23400;SDS011;11873;49.300;8.920;2023-02-22T06:15:46;7.97;;;5.47;;
23400;SDS011;11873;49.300;8.920;2023-02-22T06:20:46;6.73;;;5.13;;
23400;SDS011;11873;49.300;8.920;2023-02-22T06:25:47;7.93;;;4.73;;
23400;SDS011;11873;49.300;8.920;2023-02-22T06:30:47;6.43;;;4.90;;
23400;SDS011;11873;49.300;8.920;2023-02-22T06:35:47;6.37;;;5.30;;
23400;SDS011;11873;49.300;8.920;2023-02-22T06:40:47;7.40;;;6.50;;
23400;SDS011;11873;49.300;8.920;2023-02-22T06:45:47;13.50;;;9.57;;
23400;SDS011;11873;49.300;8.920;2023-02-22T06:50:47;8.67;;;6.40;;
23400;SDS011;11873;49.300;8.920;2023-02-22T06:55:48;6.83;;;5.70;;
23400;SDS011;11873;49.300;8.920;2023-02-22T07:00:48;7.93;;;7.03;;
23400;SDS011;11873;49.300;8.920;2023-02-22T07:05:48;9.63;;;7.37;;
23400;SDS011;11873;49.300;8.920;2023-02-22T07:10:48;6.50;;;5.83;;
23400;SDS011;11873;49.300;8.920;2023-02-22T07:15:48;5.97;;;5.43;;
23400;SDS011;11873;49.300;8.920;2023-02-22T07:20:49;7.70;;;7.00;;
23400;SDS011;11873;49.300;8.920;2023-02-22T07:25:49;7.27;;;6.50;;
23400;SDS011;11873;49.300;8.920;2023-02-22T07:30:49;8.97;;;8.07;;
23400;SDS011;11873;49.300;8.920;2023-02-22T07:35:50;13.93;;;9.07;;
23400;SDS011;11873;49.300;8.920;2023-02-22T07:40:50;13.90;;;11.40;;
23400;SDS011;11873;49.300;8.920;2023-02-22T07:45:51;11.77;;;9.90;;
23400;SDS011;11873;49.300;8.920;2023-02-22T07:50:51;9.83;;;8.83;;
23400;SDS011;11873;49.300;8.920;2023-02-22T07:55:51;7.97;;;6.93;;
23400;SDS011;11873;49.300;8.920;2023-02-22T08:00:52;8.83;;;6.90;;
23400;SDS011;11873;49.300;8.920;2023-02-22T08:05:54;8.00;;;6.40;;
23400;SDS011;11873;49.300;8.920;2023-02-22T08:10:54;8.07;;;5.53;;
23400;SDS011;11873;49.300;8.920;2023-02-22T08:15:54;6.67;;;5.97;;
23400;SDS011;11873;49.300;8.920;2023-02-22T08:20:55;7.60;;;6.10;;
23400;SDS011;11873;49.300;8.920;2023-02-22T08:25:55;7.87;;;5.97;;
23400;SDS011;11873;49.300;8.920;2023-02-22T08:30:55;7.50;;;6.70;;
23400;SDS011;11873;49.300;8.920;2023-02-22T08:35:55;6.77;;;6.07;;
23400;SDS011;11873;49.300;8.920;2023-02-22T08:40:55;7.60;;;6.73;;
23400;SDS011;11873;49.300;8.920;2023-02-22T08:45:56;7.00;;;6.27;;
23400;SDS011;11873;49.300;8.920;2023-02-22T08:50:56;7.63;;;6.23;;
23400;SDS011;11873;49.300;8.920;2023-02-22T08:55:56;7.43;;;6.73;;
23400;SDS011;11873;49.300;8.920;2023-02-22T09:00:56;8.83;;;6.77;;
23400;SDS011;11873;49.300;8.920;2023-02-22T09:05:56;7.10;;;6.40;;
23400;SDS011;11873;49.300;8.920;2023-02-22T09:10:57;9.63;;;7.33;;
23400;SDS011;11873;49.300;8.920;2023-02-22T09:15:57;7.77;;;6.53;;
23400;SDS011;11873;49.300;8.920;2023-02-22T09:20:57;7.60;;;6.83;;
23400;SDS011;11873;49.300;8.920;2023-02-22T09:25:57;8.63;;;7.30;;
23400;SDS011;11873;49.300;8.920;2023-02-22T09:30:57;9.47;;;7.27;;
23400;SDS011;11873;49.300;8.920;2023-02-22T09:35:58;9.83;;;7.50;;
23400;SDS011;11873;49.300;8.920;2023-02-22T09:51:01;10.07;;;7.30;;
23400;SDS011;11873;49.300;8.920;2023-02-22T09:56:06;11.37;;;7.50;;
23400;SDS011;11873;49.300;8.920;2023-02-22T10:01:22;8.37;;;7.47;;
23400;SDS011;11873;49.300;8.920;2023-02-22T10:06:23;11.57;;;7.20;;
23400;SDS011;11873;49.300;8.920;2023-02-22T10:16:35;9.43;;;7.70;;
23400;SDS011;11873;49.300;8.920;2023-02-22T10:26:40;9.40;;;7.20;;
23400;SDS011;11873;49.300;8.920;2023-02-22T10:31:42;7.57;;;5.80;;
23400;SDS011;11873;49.300;8.920;2023-02-22T10:36:43;8.40;;;6.23;;
23400;SDS011;11873;49.300;8.920;2023-02-22T10:41:48;8.47;;;7.07;;
23400;SDS011;11873;49.300;8.920;2023-02-22T10:46:48;11.97;;;7.43;;
23400;SDS011;11873;49.300;8.920;2023-02-22T10:51:56;7.03;;;6.33;;
23400;SDS011;11873;49.300;8.920;2023-02-22T10:56:58;8.67;;;6.90;;
23400;SDS011;11873;49.300;8.920;2023-02-22T11:01:59;7.20;;;6.03;;
23400;SDS011;11873;49.300;8.920;2023-02-22T11:12:07;8.37;;;7.47;;
23400;SDS011;11873;49.300;8.920;2023-02-22T11:17:08;8.27;;;6.13;;
23400;SDS011;11873;49.300;8.920;2023-02-22T11:22:10;9.83;;;6.43;;
23400;SDS011;11873;49.300;8.920;2023-02-22T11:27:19;8.37;;;6.27;;
23400;SDS011;11873;49.300;8.920;2023-02-22T11:32:21;8.00;;;6.43;;
23400;SDS011;11873;49.300;8.920;2023-02-22T11:37:31;9.07;;;6.70;;
23400;SDS011;11873;49.300;8.920;2023-02-22T11:42:32;6.67;;;5.97;;
23400;SDS011;11873;49.300;8.920;2023-02-22T11:47:33;9.33;;;7.33;;
23400;SDS011;11873;49.300;8.920;2023-02-22T11:52:36;10.63;;;6.80;;
23400;SDS011;11873;49.300;8.920;2023-02-22T12:08:06;9.13;;;7.20;;
23400;SDS011;11873;49.300;8.920;2023-02-22T12:18:18;7.83;;;6.53;;
23400;SDS011;11873;49.300;8.920;2023-02-22T12:23:21;8.77;;;6.43;;
23400;SDS011;11873;49.300;8.920;2023-02-22T12:28:30;7.80;;;5.73;;
23400;SDS011;11873;49.300;8.920;2023-02-22T12:33:37;6.20;;;5.60;;
23400;SDS011;11873;49.300;8.920;2023-02-22T12:38:39;7.47;;;6.57;;
23400;SDS011;11873;49.300;8.920;2023-02-22T12:43:52;6.33;;;5.40;;
23400;SDS011;11873;49.300;8.920;2023-02-22T12:54:03;7.67;;;6.27;;
23400;SDS011;11873;49.300;8.920;2023-02-22T12:59:20;8.43;;;5.40;;
23400;SDS011;11873;49.300;8.920;2023-02-22T13:04:21;7.17;;;5.63;;
23400;SDS011;11873;49.300;8.920;2023-02-22T13:09:32;9.13;;;5.40;;
23400;SDS011;11873;49.300;8.920;2023-02-22T13:14:37;9.67;;;6.73;;
23400;SDS011;11873;49.300;8.920;2023-02-22T13:19:45;10.73;;;7.83;;
23400;SDS011;11873;49.300;8.920;2023-02-22T13:30:12;10.80;;;7.43;;
23400;SDS011;11873;49.300;8.920;2023-02-22T13:35:18;9.67;;;6.73;;
23400;SDS011;11873;49.300;8.920;2023-02-22T13:50:50;9.73;;;7.47;;
23400;SDS011;11873;49.300;8.920;2023-02-22T13:55:52;11.73;;;8.50;;
23400;SDS011;11873;49.300;8.920;2023-02-22T14:00:54;12.90;;;9.20;;
23400;SDS011;11873;49.300;8.920;2023-02-22T14:05:55;11.53;;;8.70;;
23400;SDS011;11873;49.300;8.920;2023-02-22T14:10:55;8.90;;;7.57;;
23400;SDS011;11873;49.300;8.920;2023-02-22T14:26:29;11.53;;;8.30;;
23400;SDS011;11873;49.300;8.920;2023-02-22T14:31:29;9.90;;;8.40;;
23400;SDS011;11873;49.300;8.920;2023-02-22T14:41:33;10.73;;;7.77;;
23400;SDS011;11873;49.300;8.920;2023-02-22T14:46:35;9.57;;;7.90;;
23400;SDS011;11873;49.300;8.920;2023-02-22T14:51:39;11.63;;;8.80;;
23400;SDS011;11873;49.300;8.920;2023-02-22T14:56:44;10.97;;;7.07;;
23400;SDS011;11873;49.300;8.920;2023-02-22T15:01:45;9.13;;;5.80;;
23400;SDS011;11873;49.300;8.920;2023-02-22T15:06:46;11.03;;;7.57;;
23400;SDS011;11873;49.300;8.920;2023-02-22T15:11:46;8.93;;;6.20;;
23400;SDS011;11873;49.300;8.920;2023-02-22T15:16:50;11.67;;;6.63;;
23400;SDS011;11873;49.300;8.920;2023-02-22T15:21:51;10.70;;;6.60;;
23400;SDS011;11873;49.300;8.920;2023-02-22T15:26:52;11.17;;;6.90;;
23400;SDS011;11873;49.300;8.920;2023-02-22T15:31:53;13.73;;;6.60;;
23400;SDS011;11873;49.300;8.920;2023-02-22T15:36:54;12.10;;;8.20;;
23400;SDS011;11873;49.300;8.920;2023-02-22T15:47:01;12.80;;;6.97;;
23400;SDS011;11873;49.300;8.920;2023-02-22T15:52:06;11.87;;;7.20;;
23400;SDS011;11873;49.300;8.920;2023-02-22T15:57:07;12.70;;;7.37;;
23400;SDS011;11873;49.300;8.920;2023-02-22T16:02:14;12.80;;;7.83;;
23400;SDS011;11873;49.300;8.920;2023-02-22T16:07:18;13.27;;;7.90;;
23400;SDS011;11873;49.300;8.920;2023-02-22T16:17:37;12.37;;;8.03;;
23400;SDS011;11873;49.300;8.920;2023-02-22T16:22:38;15.47;;;7.97;;
23400;SDS011;11873;49.300;8.920;2023-02-22T16:27:49;12.57;;;7.20;;
23400;SDS011;11873;49.300;8.920;2023-02-22T16:32:50;10.53;;;7.37;;
23400;SDS011;11873;49.300;8.920;2023-02-22T16:37:51;14.17;;;7.70;;
23400;SDS011;11873;49.300;8.920;2023-02-22T16:42:53;10.47;;;7.47;;
23400;SDS011;11873;49.300;8.920;2023-02-22T16:47:54;13.77;;;9.40;;
23400;SDS011;11873;49.300;8.920;2023-02-22T16:52:54;14.10;;;8.53;;
23400;SDS011;11873;49.300;8.920;2023-02-22T16:57:55;12.30;;;9.03;;
23400;SDS011;11873;49.300;8.920;2023-02-22T17:02:56;14.37;;;9.60;;
23400;SDS011;11873;49.300;8.920;2023-02-22T17:07:57;14.97;;;9.03;;
23400;SDS011;11873;49.300;8.920;2023-02-22T17:12:57;13.93;;;9.20;;
23400;SDS011;11873;49.300;8.920;2023-02-22T17:17:58;15.20;;;10.60;;
23400;SDS011;11873;49.300;8.920;2023-02-22T17:22:59;13.53;;;9.10;;
23400;SDS011;11873;49.300;8.920;2023-02-22T17:27:59;13.80;;;9.60;;
23400;SDS011;11873;49.300;8.920;2023-02-22T17:33:00;16.27;;;9.27;;
23400;SDS011;11873;49.300;8.920;2023-02-22T17:38:01;11.00;;;9.10;;
23400;SDS011;11873;49.300;8.920;2023-02-22T17:43:01;14.23;;;10.07;;
23400;SDS011;11873;49.300;8.920;2023-02-22T17:48:03;12.97;;;9.27;;
23400;SDS011;11873;49.300;8.920;2023-02-22T17:53:03;12.63;;;10.03;;
23400;SDS011;11873;49.300;8.920;2023-02-22T17:58:03;26.47;;;14.87;;
23400;SDS011;11873;49.300;8.920;2023-02-22T18:03:08;42.97;;;21.67;;
23400;SDS011;11873;49.300;8.920;2023-02-22T18:08:08;45.73;;;24.57;;
23400;SDS011;11873;49.300;8.920;2023-02-22T18:13:11;34.97;;;24.50;;
23400;SDS011;11873;49.300;8.920;2023-02-22T18:18:13;23.60;;;16.40;;
23400;SDS011;11873;49.300;8.920;2023-02-22T18:23:14;21.77;;;15.60;;
23400;SDS011;11873;49.300;8.920;2023-02-22T18:28:15;18.17;;;12.23;;
23400;SDS011;11873;49.300;8.920;2023-02-22T18:33:15;13.73;;;11.20;;
23400;SDS011;11873;49.300;8.920;2023-02-22T18:38:15;20.27;;;14.00;;
23400;SDS011;11873;49.300;8.920;2023-02-22T18:43:16;21.90;;;15.37;;
23400;SDS011;11873;49.300;8.920;2023-02-22T18:48:16;21.13;;;13.77;;
23400;SDS011;11873;49.300;8.920;2023-02-22T18:53:16;19.20;;;13.57;;
23400;SDS011;11873;49.300;8.920;2023-02-22T18:58:16;20.20;;;13.47;;
23400;SDS011;11873;49.300;8.920;2023-02-22T19:03:17;21.57;;;11.47;;
23400;SDS011;11873;49.300;8.920;2023-02-22T19:08:17;14.87;;;9.50;;
23400;SDS011;11873;49.300;8.920;2023-02-22T19:13:17;14.17;;;10.10;;
23400;SDS011;11873;49.300;8.920;2023-02-22T19:18:17;11.50;;;9.03;;
23400;SDS011;11873;49.300;8.920;2023-02-22T19:23:17;9.00;;;8.10;;
23400;SDS011;11873;49.300;8.920;2023-02-22T19:28:17;16.30;;;10.10;;
23400;SDS011;11873;49.300;8.920;2023-02-22T19:33:18;11.97;;;8.87;;
23400;SDS011;11873;49.300;8.920;2023-02-22T19:38:18;13.10;;;9.57;;
23400;SDS011;11873;49.300;8.920;2023-02-22T19:43:18;12.40;;;10.83;;
23400;SDS011;11873;49.300;8.920;2023-02-22T19:48:18;13.97;;;11.00;;
23400;SDS011;11873;49.300;8.920;2023-02-22T19:53:18;17.23;;;9.33;;
23400;SDS011;11873;49.300;8.920;2023-02-22T19:58:18;14.00;;;9.77;;
23400;SDS011;11873;49.300;8.920;2023-02-22T20:03:19;10.70;;;9.30;;
23400;SDS011;11873;49.300;8.920;2023-02-22T20:08:19;18.80;;;12.57;;
23400;SDS011;11873;49.300;8.920;2023-02-22T20:13:19;12.47;;;9.53;;
23400;SDS011;11873;49.300;8.920;2023-02-22T20:18:20;15.20;;;13.53;;
23400;SDS011;11873;49.300;8.920;2023-02-22T20:23:20;12.50;;;9.83;;
23400;SDS011;11873;49.300;8.920;2023-02-22T20:28:21;17.50;;;9.73;;
23400;SDS011;11873;49.300;8.920;2023-02-22T20:33:21;11.87;;;9.50;;
23400;SDS011;11873;49.300;8.920;2023-02-22T20:38:21;14.97;;;9.60;;
23400;SDS011;11873;49.300;8.920;2023-02-22T20:43:22;11.13;;;9.93;;
23400;SDS011;11873;49.300;8.920;2023-02-22T20:48:22;11.47;;;9.73;;
23400;SDS011;11873;49.300;8.920;2023-02-22T20:53:22;13.30;;;10.60;;
23400;SDS011;11873;49.300;8.920;2023-02-22T20:58:22;14.83;;;10.33;;
23400;SDS011;11873;49.300;8.920;2023-02-22T21:03:22;17.37;;;13.13;;
23400;SDS011;11873;49.300;8.920;2023-02-22T21:08:23;18.33;;;14.27;;
23400;SDS011;11873;49.300;8.920;2023-02-22T21:13:23;11.47;;;9.80;;
23400;SDS011;11873;49.300;8.920;2023-02-22T21:18:23;14.52;;;12.93;;
23400;SDS011;11873;49.300;8.920;2023-02-22T21:23:23;12.03;;;10.60;;
23400;SDS011;11873;49.300;8.920;2023-02-22T21:28:23;14.90;;;10.80;;
23400;SDS011;11873;49.300;8.920;2023-02-22T21:33:24;15.17;;;11.37;;
23400;SDS011;11873;49.300;8.920;2023-02-22T21:38:24;13.47;;;10.63;;
23400;SDS011;11873;49.300;8.920;2023-02-22T21:43:24;14.53;;;10.47;;
23400;SDS011;11873;49.300;8.920;2023-02-22T21:48:24;11.80;;;9.03;;
23400;SDS011;11873;49.300;8.920;2023-02-22T21:53:24;10.90;;;8.73;;
23400;SDS011;11873;49.300;8.920;2023-02-22T21:58:24;13.57;;;9.50;;
23400;SDS011;11873;49.300;8.920;2023-02-22T22:03:25;12.43;;;9.43;;
23400;SDS011;11873;49.300;8.920;2023-02-22T22:08:25;10.70;;;9.37;;
23400;SDS011;11873;49.300;8.920;2023-02-22T22:13:25;12.43;;;9.73;;
23400;SDS011;11873;49.300;8.920;2023-02-22T22:18:25;12.53;;;9.73;;
23400;SDS011;11873;49.300;8.920;2023-02-22T22:23:25;12.80;;;8.73;;
23400;SDS011;11873;49.300;8.920;2023-02-22T22:28:26;12.90;;;9.60;;
23400;SDS011;11873;49.300;8.920;2023-02-22T22:33:26;13.33;;;10.07;;
23400;SDS011;11873;49.300;8.920;2023-02-22T22:38:26;11.53;;;9.97;;
23400;SDS011;11873;49.300;8.920;2023-02-22T22:43:27;12.27;;;9.97;;
23400;SDS011;11873;49.300;8.920;2023-02-22T22:48:28;17.33;;;11.00;;
23400;SDS011;11873;49.300;8.920;2023-02-22T22:53:29;16.73;;;11.00;;
23400;SDS011;11873;49.300;8.920;2023-02-22T22:58:32;12.90;;;10.43;;
23400;SDS011;11873;49.300;8.920;2023-02-22T23:03:32;14.63;;;11.37;;
23400;SDS011;11873;49.300;8.920;2023-02-22T23:08:33;15.38;;;11.45;;
23400;SDS011;11873;49.300;8.920;2023-02-22T23:13:33;16.47;;;11.30;;
23400;SDS011;11873;49.300;8.920;2023-02-22T23:18:33;15.07;;;11.60;;
23400;SDS011;11873;49.300;8.920;2023-02-22T23:23:33;18.60;;;11.70;;
23400;SDS011;11873;49.300;8.920;2023-02-22T23:28:34;15.47;;;11.67;;
23400;SDS011;11873;49.300;8.920;2023-02-22T23:33:34;15.23;;;10.83;;
23400;SDS011;11873;49.300;8.920;2023-02-22T23:38:34;15.67;;;11.20;;
23400;SDS011;11873;49.300;8.920;2023-02-22T23:43:35;13.53;;;11.27;;
23400;SDS011;11873;49.300;8.920;2023-02-22T23:48:42;16.60;;;11.23;;
23400;SDS011;11873;49.300;8.920;2023-02-22T23:53:42;16.97;;;12.03;;
23400;SDS011;11873;49.300;8.920;2023-02-22T23:58:42;15.93;;;12.43;;
